sensor_id;sensor_type;location;lat;lon;timestamp;P1;durP1;ratioP1;P2;durP2;ratioP2
76023;SDS011;64719;52.124;6.226;2024-02-23T00:01:47;1.00;;;0.70;;
76023;SDS011;64719;52.124;6.226;2024-02-23T00:04:13;0.90;;;0.55;;
76023;SDS011;64719;52.124;6.226;2024-02-23T00:06:40;1.35;;;0.80;;
76023;SDS011;64719;52.124;6.226;2024-02-23T00:09:06;2.45;;;1.02;;
76023;SDS011;64719;52.124;6.226;2024-02-23T00:11:34;1.60;;;0.98;;
76023;SDS011;64719;52.124;6.226;2024-02-23T00:14:04;1.63;;;1.02;;
76023;SDS011;64719;52.124;6.226;2024-02-23T00:16:31;1.23;;;0.90;;
76023;SDS011;64719;52.124;6.226;2024-02-23T00:18:57;2.15;;;1.08;;
76023;SDS011;64719;52.124;6.226;2024-02-23T00:21:23;1.70;;;1.05;;
76023;SDS011;64719;52.124;6.226;2024-02-23T00:23:50;2.70;;;1.10;;
76023;SDS011;64719;52.124;6.226;2024-02-23T00:26:16;2.88;;;1.20;;
76023;SDS011;64719;52.124;6.226;2024-02-23T00:28:44;3.00;;;1.00;;
76023;SDS011;64719;52.124;6.226;2024-02-23T00:31:10;2.13;;;1.20;;
76023;SDS011;64719;52.124;6.226;2024-02-23T00:33:36;3.35;;;1.30;;
76023;SDS011;64719;52.124;6.226;2024-02-23T00:36:07;4.78;;;1.52;;
76023;SDS011;64719;52.124;6.226;2024-02-23T00:38:33;1.63;;;0.90;;
76023;SDS011;64719;52.124;6.226;2024-02-23T00:41:00;2.97;;;1.40;;
76023;SDS011;64719;52.124;6.226;2024-02-23T00:43:26;2.30;;;0.90;;
76023;SDS011;64719;52.124;6.226;2024-02-23T00:45:55;3.38;;;0.80;;
76023;SDS011;64719;52.124;6.226;2024-02-23T00:48:21;1.85;;;0.70;;
76023;SDS011;64719;52.124;6.226;2024-02-23T00:50:48;6.20;;;1.05;;
76023;SDS011;64719;52.124;6.226;2024-02-23T00:53:14;3.75;;;1.05;;
76023;SDS011;64719;52.124;6.226;2024-02-23T00:55:42;3.85;;;1.08;;
76023;SDS011;64719;52.124;6.226;2024-02-23T00:58:09;2.88;;;1.20;;
76023;SDS011;64719;52.124;6.226;2024-02-23T01:00:35;5.63;;;1.48;;
76023;SDS011;64719;52.124;6.226;2024-02-23T01:03:03;8.27;;;1.75;;
76023;SDS011;64719;52.124;6.226;2024-02-23T01:05:29;5.00;;;1.42;;
76023;SDS011;64719;52.124;6.226;2024-02-23T01:07:56;3.60;;;1.58;;
76023;SDS011;64719;52.124;6.226;2024-02-23T01:10:22;3.72;;;1.65;;
76023;SDS011;64719;52.124;6.226;2024-02-23T01:12:48;5.00;;;1.52;;
76023;SDS011;64719;52.124;6.226;2024-02-23T01:15:15;3.03;;;1.60;;
76023;SDS011;64719;52.124;6.226;2024-02-23T01:17:41;8.35;;;1.85;;
76023;SDS011;64719;52.124;6.226;2024-02-23T01:20:09;2.17;;;1.05;;
76023;SDS011;64719;52.124;6.226;2024-02-23T01:22:36;3.92;;;1.10;;
76023;SDS011;64719;52.124;6.226;2024-02-23T01:25:02;1.60;;;0.75;;
76023;SDS011;64719;52.124;6.226;2024-02-23T01:27:29;3.92;;;0.70;;
76023;SDS011;64719;52.124;6.226;2024-02-23T01:29:55;1.35;;;0.60;;
76023;SDS011;64719;52.124;6.226;2024-02-23T01:32:21;2.65;;;0.77;;
76023;SDS011;64719;52.124;6.226;2024-02-23T01:34:48;4.80;;;0.85;;
76023;SDS011;64719;52.124;6.226;2024-02-23T01:37:15;0.75;;;0.50;;
76023;SDS011;64719;52.124;6.226;2024-02-23T01:39:42;2.88;;;0.68;;
76023;SDS011;64719;52.124;6.226;2024-02-23T01:42:08;8.35;;;1.27;;
76023;SDS011;64719;52.124;6.226;2024-02-23T01:44:35;3.05;;;1.00;;
76023;SDS011;64719;52.124;6.226;2024-02-23T01:47:01;5.95;;;1.55;;
76023;SDS011;64719;52.124;6.226;2024-02-23T01:49:27;7.70;;;1.98;;
76023;SDS011;64719;52.124;6.226;2024-02-23T01:51:57;4.65;;;2.67;;
76023;SDS011;64719;52.124;6.226;2024-02-23T01:54:24;11.98;;;4.32;;
76023;SDS011;64719;52.124;6.226;2024-02-23T01:56:53;9.88;;;5.00;;
76023;SDS011;64719;52.124;6.226;2024-02-23T01:59:19;9.23;;;4.57;;
76023;SDS011;64719;52.124;6.226;2024-02-23T02:01:46;10.38;;;5.07;;
76023;SDS011;64719;52.124;6.226;2024-02-23T02:04:12;8.20;;;4.72;;
76023;SDS011;64719;52.124;6.226;2024-02-23T02:06:38;8.65;;;4.45;;
76023;SDS011;64719;52.124;6.226;2024-02-23T02:09:05;9.18;;;4.28;;
76023;SDS011;64719;52.124;6.226;2024-02-23T02:11:33;10.90;;;4.72;;
76023;SDS011;64719;52.124;6.226;2024-02-23T02:13:59;8.93;;;4.40;;
76023;SDS011;64719;52.124;6.226;2024-02-23T02:16:25;7.60;;;4.30;;
76023;SDS011;64719;52.124;6.226;2024-02-23T02:18:52;10.20;;;4.00;;
76023;SDS011;64719;52.124;6.226;2024-02-23T02:21:18;10.10;;;4.05;;
76023;SDS011;64719;52.124;6.226;2024-02-23T02:23:48;8.40;;;3.83;;
76023;SDS011;64719;52.124;6.226;2024-02-23T02:26:15;6.85;;;2.60;;
76023;SDS011;64719;52.124;6.226;2024-02-23T02:28:42;10.20;;;2.45;;
76023;SDS011;64719;52.124;6.226;2024-02-23T02:31:09;4.88;;;2.65;;
76023;SDS011;64719;52.124;6.226;2024-02-23T02:33:35;5.35;;;1.75;;
76023;SDS011;64719;52.124;6.226;2024-02-23T02:36:01;5.30;;;1.73;;
76023;SDS011;64719;52.124;6.226;2024-02-23T02:38:28;6.57;;;1.48;;
76023;SDS011;64719;52.124;6.226;2024-02-23T02:40:54;2.50;;;1.85;;
76023;SDS011;64719;52.124;6.226;2024-02-23T02:43:22;5.22;;;1.80;;
76023;SDS011;64719;52.124;6.226;2024-02-23T02:45:49;6.05;;;1.70;;
76023;SDS011;64719;52.124;6.226;2024-02-23T02:48:16;4.75;;;1.45;;
76023;SDS011;64719;52.124;6.226;2024-02-23T02:50:43;4.97;;;1.52;;
76023;SDS011;64719;52.124;6.226;2024-02-23T02:53:09;8.02;;;1.55;;
76023;SDS011;64719;52.124;6.226;2024-02-23T02:55:35;2.60;;;1.20;;
76023;SDS011;64719;52.124;6.226;2024-02-23T02:58:02;2.38;;;0.90;;
76023;SDS011;64719;52.124;6.226;2024-02-23T03:00:28;5.68;;;1.30;;
76023;SDS011;64719;52.124;6.226;2024-02-23T03:02:57;3.80;;;1.25;;
76023;SDS011;64719;52.124;6.226;2024-02-23T03:05:23;2.42;;;1.27;;
76023;SDS011;64719;52.124;6.226;2024-02-23T03:07:50;4.30;;;1.33;;
76023;SDS011;64719;52.124;6.226;2024-02-23T03:10:16;4.13;;;1.17;;
76023;SDS011;64719;52.124;6.226;2024-02-23T03:12:42;4.63;;;1.00;;
76023;SDS011;64719;52.124;6.226;2024-02-23T03:15:09;4.57;;;1.20;;
76023;SDS011;64719;52.124;6.226;2024-02-23T03:17:35;6.03;;;1.27;;
76023;SDS011;64719;52.124;6.226;2024-02-23T03:20:03;6.80;;;1.20;;
76023;SDS011;64719;52.124;6.226;2024-02-23T03:22:33;4.00;;;1.45;;
76023;SDS011;64719;52.124;6.226;2024-02-23T03:24:59;4.60;;;1.08;;
76023;SDS011;64719;52.124;6.226;2024-02-23T03:27:33;6.22;;;1.23;;
76023;SDS011;64719;52.124;6.226;2024-02-23T03:29:59;2.38;;;1.30;;
76023;SDS011;64719;52.124;6.226;2024-02-23T03:32:25;5.43;;;1.25;;
76023;SDS011;64719;52.124;6.226;2024-02-23T03:34:51;9.75;;;1.48;;
76023;SDS011;64719;52.124;6.226;2024-02-23T03:37:19;5.70;;;1.25;;
76023;SDS011;64719;52.124;6.226;2024-02-23T03:39:45;4.85;;;2.08;;
76023;SDS011;64719;52.124;6.226;2024-02-23T03:42:13;1.98;;;1.13;;
76023;SDS011;64719;52.124;6.226;2024-02-23T03:44:39;3.50;;;0.68;;
76023;SDS011;64719;52.124;6.226;2024-02-23T03:47:07;5.70;;;1.48;;
76023;SDS011;64719;52.124;6.226;2024-02-23T03:49:34;5.13;;;1.23;;
76023;SDS011;64719;52.124;6.226;2024-02-23T03:52:00;2.75;;;1.05;;
76023;SDS011;64719;52.124;6.226;2024-02-23T03:54:28;2.22;;;1.13;;
76023;SDS011;64719;52.124;6.226;2024-02-23T03:56:54;2.60;;;0.95;;
76023;SDS011;64719;52.124;6.226;2024-02-23T03:59:20;8.48;;;1.23;;
76023;SDS011;64719;52.124;6.226;2024-02-23T04:01:47;4.03;;;1.20;;
76023;SDS011;64719;52.124;6.226;2024-02-23T04:04:13;4.63;;;1.15;;
76023;SDS011;64719;52.124;6.226;2024-02-23T04:06:39;4.55;;;1.05;;
76023;SDS011;64719;52.124;6.226;2024-02-23T04:09:05;5.18;;;1.17;;
76023;SDS011;64719;52.124;6.226;2024-02-23T04:11:35;2.75;;;1.00;;
76023;SDS011;64719;52.124;6.226;2024-02-23T04:14:01;3.42;;;1.25;;
76023;SDS011;64719;52.124;6.226;2024-02-23T04:16:30;3.97;;;1.35;;
76023;SDS011;64719;52.124;6.226;2024-02-23T04:18:56;5.22;;;1.70;;
76023;SDS011;64719;52.124;6.226;2024-02-23T04:21:24;3.72;;;1.30;;
76023;SDS011;64719;52.124;6.226;2024-02-23T04:23:50;3.08;;;0.90;;
76023;SDS011;64719;52.124;6.226;2024-02-23T04:26:17;9.75;;;1.60;;
76023;SDS011;64719;52.124;6.226;2024-02-23T04:28:44;3.92;;;1.38;;
76023;SDS011;64719;52.124;6.226;2024-02-23T04:31:10;6.10;;;1.10;;
76023;SDS011;64719;52.124;6.226;2024-02-23T04:33:37;6.43;;;1.30;;
76023;SDS011;64719;52.124;6.226;2024-02-23T04:36:04;4.18;;;1.27;;
76023;SDS011;64719;52.124;6.226;2024-02-23T04:38:31;6.78;;;1.40;;
76023;SDS011;64719;52.124;6.226;2024-02-23T04:40:57;6.18;;;1.00;;
76023;SDS011;64719;52.124;6.226;2024-02-23T04:43:23;2.55;;;1.00;;
76023;SDS011;64719;52.124;6.226;2024-02-23T04:45:51;6.43;;;1.85;;
76023;SDS011;64719;52.124;6.226;2024-02-23T04:48:18;5.25;;;1.30;;
76023;SDS011;64719;52.124;6.226;2024-02-23T04:50:44;5.30;;;1.20;;
76023;SDS011;64719;52.124;6.226;2024-02-23T04:53:10;5.00;;;1.30;;
76023;SDS011;64719;52.124;6.226;2024-02-23T04:55:37;2.83;;;1.00;;
76023;SDS011;64719;52.124;6.226;2024-02-23T04:58:03;5.55;;;1.23;;
76023;SDS011;64719;52.124;6.226;2024-02-23T05:00:29;9.70;;;3.13;;
76023;SDS011;64719;52.124;6.226;2024-02-23T05:02:59;3.42;;;1.40;;
76023;SDS011;64719;52.124;6.226;2024-02-23T05:05:28;5.40;;;1.70;;
76023;SDS011;64719;52.124;6.226;2024-02-23T05:07:54;3.47;;;1.42;;
76023;SDS011;64719;52.124;6.226;2024-02-23T05:10:20;5.55;;;1.42;;
76023;SDS011;64719;52.124;6.226;2024-02-23T05:12:47;5.07;;;1.38;;
76023;SDS011;64719;52.124;6.226;2024-02-23T05:15:14;4.03;;;1.65;;
76023;SDS011;64719;52.124;6.226;2024-02-23T05:17:40;5.70;;;1.40;;
76023;SDS011;64719;52.124;6.226;2024-02-23T05:20:08;9.73;;;1.40;;
76023;SDS011;64719;52.124;6.226;2024-02-23T05:22:35;4.63;;;1.30;;
76023;SDS011;64719;52.124;6.226;2024-02-23T05:25:01;9.00;;;1.50;;
76023;SDS011;64719;52.124;6.226;2024-02-23T05:27:28;7.65;;;1.42;;
76023;SDS011;64719;52.124;6.226;2024-02-23T05:29:54;5.47;;;1.23;;
76023;SDS011;64719;52.124;6.226;2024-02-23T05:32:21;2.75;;;1.05;;
76023;SDS011;64719;52.124;6.226;2024-02-23T05:34:47;9.63;;;1.70;;
76023;SDS011;64719;52.124;6.226;2024-02-23T05:37:17;5.78;;;1.48;;
76023;SDS011;64719;52.124;6.226;2024-02-23T05:39:44;2.97;;;1.02;;
76023;SDS011;64719;52.124;6.226;2024-02-23T05:42:11;4.93;;;1.20;;
76023;SDS011;64719;52.124;6.226;2024-02-23T05:44:37;6.22;;;1.05;;
76023;SDS011;64719;52.124;6.226;2024-02-23T05:47:04;5.50;;;1.30;;
76023;SDS011;64719;52.124;6.226;2024-02-23T05:49:31;4.28;;;1.30;;
76023;SDS011;64719;52.124;6.226;2024-02-23T05:51:57;2.60;;;1.50;;
76023;SDS011;64719;52.124;6.226;2024-02-23T05:54:25;6.55;;;1.40;;
76023;SDS011;64719;52.124;6.226;2024-02-23T05:56:51;4.45;;;1.65;;
76023;SDS011;64719;52.124;6.226;2024-02-23T05:59:17;5.80;;;1.63;;
76023;SDS011;64719;52.124;6.226;2024-02-23T06:01:44;7.50;;;1.55;;
76023;SDS011;64719;52.124;6.226;2024-02-23T06:04:10;8.52;;;1.73;;
76023;SDS011;64719;52.124;6.226;2024-02-23T06:06:36;7.25;;;1.73;;
76023;SDS011;64719;52.124;6.226;2024-02-23T06:09:03;2.53;;;0.98;;
76023;SDS011;64719;52.124;6.226;2024-02-23T06:11:32;3.47;;;1.50;;
76023;SDS011;64719;52.124;6.226;2024-02-23T06:13:58;4.10;;;1.73;;
76023;SDS011;64719;52.124;6.226;2024-02-23T06:16:24;4.30;;;1.50;;
76023;SDS011;64719;52.124;6.226;2024-02-23T06:18:51;5.55;;;1.52;;
76023;SDS011;64719;52.124;6.226;2024-02-23T06:21:17;4.88;;;1.40;;
76023;SDS011;64719;52.124;6.226;2024-02-23T06:23:44;2.17;;;1.27;;
76023;SDS011;64719;52.124;6.226;2024-02-23T06:26:10;5.88;;;1.55;;
76023;SDS011;64719;52.124;6.226;2024-02-23T06:28:38;3.13;;;1.27;;
76023;SDS011;64719;52.124;6.226;2024-02-23T06:31:06;2.20;;;1.17;;
76023;SDS011;64719;52.124;6.226;2024-02-23T06:33:33;3.90;;;2.22;;
76023;SDS011;64719;52.124;6.226;2024-02-23T06:35:59;3.08;;;1.65;;
76023;SDS011;64719;52.124;6.226;2024-02-23T06:38:25;7.70;;;1.70;;
76023;SDS011;64719;52.124;6.226;2024-02-23T06:40:52;5.95;;;2.00;;
76023;SDS011;64719;52.124;6.226;2024-02-23T06:43:18;6.82;;;1.80;;
76023;SDS011;64719;52.124;6.226;2024-02-23T06:45:46;4.78;;;1.30;;
76023;SDS011;64719;52.124;6.226;2024-02-23T06:48:12;3.00;;;0.85;;
76023;SDS011;64719;52.124;6.226;2024-02-23T06:50:38;4.30;;;1.20;;
76023;SDS011;64719;52.124;6.226;2024-02-23T06:53:05;3.65;;;1.02;;
76023;SDS011;64719;52.124;6.226;2024-02-23T06:55:31;4.60;;;1.40;;
76023;SDS011;64719;52.124;6.226;2024-02-23T06:57:58;5.53;;;1.40;;
76023;SDS011;64719;52.124;6.226;2024-02-23T07:00:24;5.95;;;0.90;;
76023;SDS011;64719;52.124;6.226;2024-02-23T07:02:52;5.38;;;1.08;;
76023;SDS011;64719;52.124;6.226;2024-02-23T07:05:18;2.03;;;1.63;;
76023;SDS011;64719;52.124;6.226;2024-02-23T07:07:44;3.03;;;1.10;;
76023;SDS011;64719;52.124;6.226;2024-02-23T07:10:11;3.47;;;1.48;;
76023;SDS011;64719;52.124;6.226;2024-02-23T07:12:38;5.03;;;1.10;;
76023;SDS011;64719;52.124;6.226;2024-02-23T07:15:05;9.57;;;1.83;;
76023;SDS011;64719;52.124;6.226;2024-02-23T07:17:31;5.53;;;1.00;;
76023;SDS011;64719;52.124;6.226;2024-02-23T07:19:59;7.32;;;1.10;;
76023;SDS011;64719;52.124;6.226;2024-02-23T07:22:30;7.15;;;1.63;;
76023;SDS011;64719;52.124;6.226;2024-02-23T07:24:56;2.53;;;0.80;;
76023;SDS011;64719;52.124;6.226;2024-02-23T07:27:23;3.63;;;1.13;;
76023;SDS011;64719;52.124;6.226;2024-02-23T07:29:49;2.58;;;1.00;;
76023;SDS011;64719;52.124;6.226;2024-02-23T07:32:15;4.93;;;1.17;;
76023;SDS011;64719;52.124;6.226;2024-02-23T07:34:42;2.80;;;0.93;;
76023;SDS011;64719;52.124;6.226;2024-02-23T07:37:10;3.35;;;0.98;;
76023;SDS011;64719;52.124;6.226;2024-02-23T07:39:36;5.55;;;1.95;;
76023;SDS011;64719;52.124;6.226;2024-02-23T07:42:03;3.78;;;1.08;;
76023;SDS011;64719;52.124;6.226;2024-02-23T07:44:31;2.97;;;1.20;;
76023;SDS011;64719;52.124;6.226;2024-02-23T07:46:57;3.22;;;1.40;;
76023;SDS011;64719;52.124;6.226;2024-02-23T07:49:24;3.45;;;0.93;;
76023;SDS011;64719;52.124;6.226;2024-02-23T07:51:52;3.88;;;1.10;;
76023;SDS011;64719;52.124;6.226;2024-02-23T07:54:19;7.22;;;1.10;;
76023;SDS011;64719;52.124;6.226;2024-02-23T07:56:46;2.28;;;0.73;;
76023;SDS011;64719;52.124;6.226;2024-02-23T07:59:12;9.40;;;1.20;;
76023;SDS011;64719;52.124;6.226;2024-02-23T08:01:38;5.57;;;1.10;;
76023;SDS011;64719;52.124;6.226;2024-02-23T08:04:05;8.95;;;1.45;;
76023;SDS011;64719;52.124;6.226;2024-02-23T08:06:31;4.80;;;1.00;;
76023;SDS011;64719;52.124;6.226;2024-02-23T08:08:58;3.83;;;0.98;;
76023;SDS011;64719;52.124;6.226;2024-02-23T08:11:25;6.00;;;1.13;;
76023;SDS011;64719;52.124;6.226;2024-02-23T08:13:52;4.32;;;1.05;;
76023;SDS011;64719;52.124;6.226;2024-02-23T08:16:18;3.80;;;0.90;;
76023;SDS011;64719;52.124;6.226;2024-02-23T08:18:44;3.30;;;1.40;;
76023;SDS011;64719;52.124;6.226;2024-02-23T08:21:11;4.28;;;1.35;;
76023;SDS011;64719;52.124;6.226;2024-02-23T08:23:37;4.25;;;1.30;;
76023;SDS011;64719;52.124;6.226;2024-02-23T08:26:04;3.00;;;1.10;;
76023;SDS011;64719;52.124;6.226;2024-02-23T08:28:31;3.65;;;1.20;;
76023;SDS011;64719;52.124;6.226;2024-02-23T08:30:58;4.10;;;1.20;;
76023;SDS011;64719;52.124;6.226;2024-02-23T08:33:24;3.97;;;1.05;;
76023;SDS011;64719;52.124;6.226;2024-02-23T08:35:50;3.40;;;1.10;;
76023;SDS011;64719;52.124;6.226;2024-02-23T08:38:16;4.30;;;1.05;;
76023;SDS011;64719;52.124;6.226;2024-02-23T08:40:43;4.97;;;1.48;;
76023;SDS011;64719;52.124;6.226;2024-02-23T08:43:10;2.50;;;1.40;;
76023;SDS011;64719;52.124;6.226;2024-02-23T08:45:38;2.85;;;0.90;;
76023;SDS011;64719;52.124;6.226;2024-02-23T08:48:04;5.25;;;1.10;;
76023;SDS011;64719;52.124;6.226;2024-02-23T08:50:32;4.35;;;1.20;;
76023;SDS011;64719;52.124;6.226;2024-02-23T08:52:59;3.08;;;0.88;;
76023;SDS011;64719;52.124;6.226;2024-02-23T08:55:25;8.25;;;1.27;;
76023;SDS011;64719;52.124;6.226;2024-02-23T08:57:51;2.70;;;0.90;;
76023;SDS011;64719;52.124;6.226;2024-02-23T09:00:18;4.05;;;1.00;;
76023;SDS011;64719;52.124;6.226;2024-02-23T09:02:46;4.57;;;1.00;;
76023;SDS011;64719;52.124;6.226;2024-02-23T09:05:12;5.85;;;1.13;;
76023;SDS011;64719;52.124;6.226;2024-02-23T09:07:38;2.78;;;0.90;;
76023;SDS011;64719;52.124;6.226;2024-02-23T09:10:05;2.75;;;0.90;;
76023;SDS011;64719;52.124;6.226;2024-02-23T09:12:31;3.05;;;0.90;;
76023;SDS011;64719;52.124;6.226;2024-02-23T09:14:58;4.85;;;1.00;;
76023;SDS011;64719;52.124;6.226;2024-02-23T09:17:24;4.93;;;1.42;;
76023;SDS011;64719;52.124;6.226;2024-02-23T09:19:52;3.42;;;0.80;;
76023;SDS011;64719;52.124;6.226;2024-02-23T09:22:18;5.40;;;0.80;;
76023;SDS011;64719;52.124;6.226;2024-02-23T09:24:44;2.95;;;1.30;;
76023;SDS011;64719;52.124;6.226;2024-02-23T09:27:10;4.43;;;0.95;;
76023;SDS011;64719;52.124;6.226;2024-02-23T09:29:37;3.88;;;0.95;;
76023;SDS011;64719;52.124;6.226;2024-02-23T09:32:03;2.83;;;1.50;;
76023;SDS011;64719;52.124;6.226;2024-02-23T09:34:30;1.10;;;0.57;;
76023;SDS011;64719;52.124;6.226;2024-02-23T09:36:57;3.50;;;0.73;;
76023;SDS011;64719;52.124;6.226;2024-02-23T09:39:24;2.33;;;0.82;;
76023;SDS011;64719;52.124;6.226;2024-02-23T09:41:51;4.25;;;0.93;;
76023;SDS011;64719;52.124;6.226;2024-02-23T09:44:18;3.88;;;1.02;;
76023;SDS011;64719;52.124;6.226;2024-02-23T09:46:45;10.13;;;1.17;;
76023;SDS011;64719;52.124;6.226;2024-02-23T09:49:12;3.20;;;1.05;;
76023;SDS011;64719;52.124;6.226;2024-02-23T09:51:40;4.10;;;1.08;;
76023;SDS011;64719;52.124;6.226;2024-02-23T09:54:08;6.95;;;1.42;;
76023;SDS011;64719;52.124;6.226;2024-02-23T09:56:34;2.63;;;0.80;;
76023;SDS011;64719;52.124;6.226;2024-02-23T09:59:02;3.50;;;0.95;;
76023;SDS011;64719;52.124;6.226;2024-02-23T10:01:29;3.35;;;1.00;;
76023;SDS011;64719;52.124;6.226;2024-02-23T10:03:57;6.60;;;1.00;;
76023;SDS011;64719;52.124;6.226;2024-02-23T10:06:24;5.82;;;1.20;;
76023;SDS011;64719;52.124;6.226;2024-02-23T10:08:50;4.50;;;1.23;;
76023;SDS011;64719;52.124;6.226;2024-02-23T10:11:19;6.15;;;1.17;;
76023;SDS011;64719;52.124;6.226;2024-02-23T10:13:47;3.75;;;1.27;;
76023;SDS011;64719;52.124;6.226;2024-02-23T10:16:14;5.75;;;1.00;;
76023;SDS011;64719;52.124;6.226;2024-02-23T10:18:40;3.83;;;0.90;;
76023;SDS011;64719;52.124;6.226;2024-02-23T10:21:07;3.55;;;1.00;;
76023;SDS011;64719;52.124;6.226;2024-02-23T10:23:33;4.72;;;1.48;;
76023;SDS011;64719;52.124;6.226;2024-02-23T10:25:59;4.88;;;1.45;;
76023;SDS011;64719;52.124;6.226;2024-02-23T10:28:27;2.92;;;0.70;;
76023;SDS011;64719;52.124;6.226;2024-02-23T10:30:53;6.13;;;1.02;;
76023;SDS011;64719;52.124;6.226;2024-02-23T10:33:21;5.78;;;1.40;;
76023;SDS011;64719;52.124;6.226;2024-02-23T10:35:48;7.55;;;1.00;;
76023;SDS011;64719;52.124;6.226;2024-02-23T10:38:16;2.63;;;1.20;;
76023;SDS011;64719;52.124;6.226;2024-02-23T10:40:44;2.60;;;0.98;;
76023;SDS011;64719;52.124;6.226;2024-02-23T10:43:11;2.70;;;0.85;;
76023;SDS011;64719;52.124;6.226;2024-02-23T10:45:39;6.63;;;0.90;;
76023;SDS011;64719;52.124;6.226;2024-02-23T10:48:07;2.63;;;1.00;;
76023;SDS011;64719;52.124;6.226;2024-02-23T10:50:34;4.03;;;1.17;;
76023;SDS011;64719;52.124;6.226;2024-02-23T10:53:02;6.00;;;1.02;;
76023;SDS011;64719;52.124;6.226;2024-02-23T10:55:29;6.97;;;0.90;;
76023;SDS011;64719;52.124;6.226;2024-02-23T10:57:57;4.35;;;1.30;;
76023;SDS011;64719;52.124;6.226;2024-02-23T11:00:24;6.90;;;1.50;;
76023;SDS011;64719;52.124;6.226;2024-02-23T11:02:52;2.58;;;0.90;;
76023;SDS011;64719;52.124;6.226;2024-02-23T11:05:19;4.75;;;1.00;;
76023;SDS011;64719;52.124;6.226;2024-02-23T11:07:45;3.75;;;1.13;;
76023;SDS011;64719;52.124;6.226;2024-02-23T11:10:14;2.97;;;1.50;;
76023;SDS011;64719;52.124;6.226;2024-02-23T11:12:40;2.70;;;0.90;;
76023;SDS011;64719;52.124;6.226;2024-02-23T11:15:08;2.97;;;0.88;;
76023;SDS011;64719;52.124;6.226;2024-02-23T11:17:36;3.70;;;1.10;;
76023;SDS011;64719;52.124;6.226;2024-02-23T11:20:05;4.63;;;1.30;;
76023;SDS011;64719;52.124;6.226;2024-02-23T11:24:59;3.45;;;1.00;;
76023;SDS011;64719;52.124;6.226;2024-02-23T11:27:29;2.90;;;1.33;;
76023;SDS011;64719;52.124;6.226;2024-02-23T11:29:59;1.65;;;0.90;;
76023;SDS011;64719;52.124;6.226;2024-02-23T11:32:34;2.22;;;0.85;;
76023;SDS011;64719;52.124;6.226;2024-02-23T11:35:01;3.25;;;1.00;;
76023;SDS011;64719;52.124;6.226;2024-02-23T11:37:29;1.75;;;0.98;;
76023;SDS011;64719;52.124;6.226;2024-02-23T11:39:55;2.35;;;1.00;;
76023;SDS011;64719;52.124;6.226;2024-02-23T11:42:23;3.97;;;1.00;;
76023;SDS011;64719;52.124;6.226;2024-02-23T11:44:49;3.38;;;1.10;;
76023;SDS011;64719;52.124;6.226;2024-02-23T11:47:16;4.18;;;0.93;;
76023;SDS011;64719;52.124;6.226;2024-02-23T11:49:43;1.90;;;0.75;;
76023;SDS011;64719;52.124;6.226;2024-02-23T11:52:09;5.95;;;0.80;;
76023;SDS011;64719;52.124;6.226;2024-02-23T11:54:37;3.03;;;0.80;;
76023;SDS011;64719;52.124;6.226;2024-02-23T11:57:03;3.38;;;1.00;;
76023;SDS011;64719;52.124;6.226;2024-02-23T11:59:30;3.97;;;0.80;;
76023;SDS011;64719;52.124;6.226;2024-02-23T12:01:56;1.95;;;0.70;;
76023;SDS011;64719;52.124;6.226;2024-02-23T12:04:23;1.58;;;0.98;;
76023;SDS011;64719;52.124;6.226;2024-02-23T12:06:49;1.55;;;0.80;;
76023;SDS011;64719;52.124;6.226;2024-02-23T12:09:15;4.03;;;0.90;;
76023;SDS011;64719;52.124;6.226;2024-02-23T12:11:43;2.65;;;0.80;;
76023;SDS011;64719;52.124;6.226;2024-02-23T12:14:09;2.75;;;0.98;;
76023;SDS011;64719;52.124;6.226;2024-02-23T12:16:36;5.57;;;1.10;;
76023;SDS011;64719;52.124;6.226;2024-02-23T12:19:02;5.30;;;1.17;;
76023;SDS011;64719;52.124;6.226;2024-02-23T12:21:29;4.63;;;1.10;;
76023;SDS011;64719;52.124;6.226;2024-02-23T12:23:55;2.13;;;0.85;;
76023;SDS011;64719;52.124;6.226;2024-02-23T12:26:22;1.40;;;0.80;;
76023;SDS011;64719;52.124;6.226;2024-02-23T12:28:50;1.30;;;0.75;;
76023;SDS011;64719;52.124;6.226;2024-02-23T12:31:16;4.15;;;1.00;;
76023;SDS011;64719;52.124;6.226;2024-02-23T12:33:49;5.13;;;0.85;;
76023;SDS011;64719;52.124;6.226;2024-02-23T12:36:16;3.03;;;0.77;;
76023;SDS011;64719;52.124;6.226;2024-02-23T12:38:43;3.25;;;1.15;;
76023;SDS011;64719;52.124;6.226;2024-02-23T12:41:09;2.13;;;0.73;;
76023;SDS011;64719;52.124;6.226;2024-02-23T12:43:36;4.60;;;0.85;;
76023;SDS011;64719;52.124;6.226;2024-02-23T12:46:04;2.53;;;0.82;;
76023;SDS011;64719;52.124;6.226;2024-02-23T12:48:31;1.98;;;1.27;;
76023;SDS011;64719;52.124;6.226;2024-02-23T12:50:58;3.08;;;0.90;;
76023;SDS011;64719;52.124;6.226;2024-02-23T12:53:31;3.13;;;1.10;;
76023;SDS011;64719;52.124;6.226;2024-02-23T12:55:58;2.65;;;1.08;;
76023;SDS011;64719;52.124;6.226;2024-02-23T12:58:24;4.28;;;1.00;;
76023;SDS011;64719;52.124;6.226;2024-02-23T13:00:50;5.68;;;1.20;;
76023;SDS011;64719;52.124;6.226;2024-02-23T13:03:18;2.67;;;1.08;;
76023;SDS011;64719;52.124;6.226;2024-02-23T13:05:45;3.97;;;1.00;;
76023;SDS011;64719;52.124;6.226;2024-02-23T13:08:12;4.75;;;0.88;;
76023;SDS011;64719;52.124;6.226;2024-02-23T13:10:38;4.47;;;1.00;;
76023;SDS011;64719;52.124;6.226;2024-02-23T13:13:04;2.35;;;1.10;;
76023;SDS011;64719;52.124;6.226;2024-02-23T13:15:30;3.75;;;1.13;;
76023;SDS011;64719;52.124;6.226;2024-02-23T13:17:57;3.70;;;1.10;;
76023;SDS011;64719;52.124;6.226;2024-02-23T13:20:24;3.78;;;1.00;;
76023;SDS011;64719;52.124;6.226;2024-02-23T13:22:51;2.75;;;1.00;;
76023;SDS011;64719;52.124;6.226;2024-02-23T13:25:18;2.30;;;0.70;;
76023;SDS011;64719;52.124;6.226;2024-02-23T13:27:44;3.78;;;1.20;;
76023;SDS011;64719;52.124;6.226;2024-02-23T13:30:11;3.95;;;1.23;;
76023;SDS011;64719;52.124;6.226;2024-02-23T13:32:38;3.72;;;1.00;;
76023;SDS011;64719;52.124;6.226;2024-02-23T13:35:04;1.95;;;0.80;;
76023;SDS011;64719;52.124;6.226;2024-02-23T13:37:32;4.53;;;1.63;;
76023;SDS011;64719;52.124;6.226;2024-02-23T13:39:59;3.67;;;1.08;;
76023;SDS011;64719;52.124;6.226;2024-02-23T13:42:25;4.88;;;1.30;;
76023;SDS011;64719;52.124;6.226;2024-02-23T13:44:52;4.03;;;1.08;;
76023;SDS011;64719;52.124;6.226;2024-02-23T13:47:18;4.53;;;1.10;;
76023;SDS011;64719;52.124;6.226;2024-02-23T13:49:44;4.47;;;1.17;;
76023;SDS011;64719;52.124;6.226;2024-02-23T13:52:11;3.03;;;0.98;;
76023;SDS011;64719;52.124;6.226;2024-02-23T13:54:38;2.85;;;1.00;;
76023;SDS011;64719;52.124;6.226;2024-02-23T13:57:05;3.03;;;1.05;;
76023;SDS011;64719;52.124;6.226;2024-02-23T13:59:31;4.03;;;1.13;;
76023;SDS011;64719;52.124;6.226;2024-02-23T14:01:57;5.43;;;1.20;;
76023;SDS011;64719;52.124;6.226;2024-02-23T14:04:24;2.90;;;1.30;;
76023;SDS011;64719;52.124;6.226;2024-02-23T14:06:51;3.72;;;1.30;;
76023;SDS011;64719;52.124;6.226;2024-02-23T14:09:17;2.85;;;1.27;;
76023;SDS011;64719;52.124;6.226;2024-02-23T14:11:45;2.65;;;1.00;;
76023;SDS011;64719;52.124;6.226;2024-02-23T14:14:11;4.35;;;1.38;;
76023;SDS011;64719;52.124;6.226;2024-02-23T14:16:38;3.30;;;1.00;;
76023;SDS011;64719;52.124;6.226;2024-02-23T14:19:04;3.45;;;1.52;;
76023;SDS011;64719;52.124;6.226;2024-02-23T14:21:31;5.13;;;1.75;;
76023;SDS011;64719;52.124;6.226;2024-02-23T14:23:57;2.30;;;1.20;;
76023;SDS011;64719;52.124;6.226;2024-02-23T14:26:23;3.15;;;1.00;;
76023;SDS011;64719;52.124;6.226;2024-02-23T14:28:51;3.55;;;1.27;;
76023;SDS011;64719;52.124;6.226;2024-02-23T14:31:16;4.13;;;1.38;;
76023;SDS011;64719;52.124;6.226;2024-02-23T14:33:43;3.47;;;0.90;;
76023;SDS011;64719;52.124;6.226;2024-02-23T14:36:09;3.10;;;1.30;;
76023;SDS011;64719;52.124;6.226;2024-02-23T14:38:35;4.82;;;1.13;;
76023;SDS011;64719;52.124;6.226;2024-02-23T14:41:02;3.75;;;0.90;;
76023;SDS011;64719;52.124;6.226;2024-02-23T14:43:28;3.47;;;1.13;;
76023;SDS011;64719;52.124;6.226;2024-02-23T14:45:57;3.10;;;1.10;;
76023;SDS011;64719;52.124;6.226;2024-02-23T14:48:23;2.65;;;0.82;;